Time;durP1;ratioP1;P1;durP2;ratioP2;P2;SDS_P1;SDS_P2;PMS_P1;PMS_P2;Temp;Humidity;BMP_temperature;BMP_pressure;BME280_temperature;BME280_humidity;BME280_pressure;Samples;Min_cycle;Max_cycle;Signal;HPM_P1;HPM_P2
2023/06/10 00:01:25;;;;;;;9.02;4.60;;;16.80;99.90;;;;;;5111751;28;20095;-70
2023/06/10 00:03:51;;;;;;;5.10;4.47;;;16.80;99.90;;;;;;5112078;28;20456;-70
2023/06/10 00:06:17;;;;;;;10.32;4.47;;;16.70;99.90;;;;;;5112552;28;20036;-70
2023/06/10 00:08:43;;;;;;;6.72;4.78;;;16.80;99.90;;;;;;5129937;28;20044;-70
2023/06/10 00:11:10;;;;;;;7.05;5.25;;;16.70;99.90;;;;;;5125265;27;20460;-70
2023/06/10 00:13:36;;;;;;;5.78;4.85;;;16.70;99.90;;;;;;5135542;27;20023;-70
2023/06/10 00:16:03;;;;;;;5.93;4.75;;;16.70;99.90;;;;;;5136299;27;20031;-70
2023/06/10 00:18:31;;;;;;;5.65;4.80;;;16.70;99.90;;;;;;5135773;27;20472;-70
2023/06/10 00:20:57;;;;;;;6.30;4.78;;;16.70;99.90;;;;;;5136216;27;20471;-70
2023/06/10 00:23:24;;;;;;;5.95;4.80;;;16.70;99.90;;;;;;5136297;27;20036;-72
2023/06/10 00:25:50;;;;;;;5.22;4.63;;;16.70;99.90;;;;;;5136154;27;20114;-69
2023/06/10 00:28:15;;;;;;;8.50;4.45;;;16.70;99.90;;;;;;5136190;27;20110;-70
2023/06/10 00:30:41;;;;;;;7.28;4.80;;;16.70;99.90;;;;;;5135923;27;20053;-70
2023/06/10 00:33:07;;;;;;;5.57;4.53;;;16.70;99.90;;;;;;5136142;27;20486;-70
2023/06/10 00:35:32;;;;;;;7.25;4.72;;;16.70;99.90;;;;;;5135498;27;20114;-70
2023/06/10 00:37:58;;;;;;;5.40;4.90;;;16.70;99.90;;;;;;5117742;27;20023;-70
2023/06/10 00:40:23;;;;;;;7.03;5.20;;;16.70;99.90;;;;;;5135952;27;20062;-69
2023/06/10 00:42:49;;;;;;;14.40;5.15;;;16.70;99.90;;;;;;5135645;27;20023;-69
2023/06/10 00:45:15;;;;;;;6.82;4.75;;;16.70;99.90;;;;;;5135623;27;20043;-69
2023/06/10 00:47:40;;;;;;;8.48;5.53;;;16.60;99.90;;;;;;5135134;27;20031;-69
2023/06/10 00:50:07;;;;;;;6.15;5.05;;;16.60;99.90;;;;;;5136184;27;20065;-69
2023/06/10 00:52:34;;;;;;;6.30;4.70;;;16.60;99.90;;;;;;5135161;27;20113;-70
2023/06/10 00:55:00;;;;;;;6.60;5.00;;;16.70;99.90;;;;;;5135619;27;20031;-70
2023/06/10 00:57:26;;;;;;;5.95;4.68;;;16.70;99.90;;;;;;5135715;27;20033;-73
2023/06/10 00:59:52;;;;;;;6.70;4.95;;;16.60;99.90;;;;;;5135285;27;20031;-70
2023/06/10 01:02:17;;;;;;;6.38;5.22;;;16.60;99.90;;;;;;5135518;27;20023;-70
2023/06/10 01:04:43;;;;;;;5.40;4.90;;;16.60;99.90;;;;;;5135023;27;20023;-69
2023/06/10 01:07:35;;;;;;;6.55;5.53;;;16.60;99.90;;;;;;5135347;27;20031;-70
2023/06/10 01:10:04;;;;;;;6.90;5.32;;;16.50;99.90;;;;;;5135261;27;20356;-70
2023/06/10 01:12:52;;;;;;;7.13;5.35;;;16.60;99.90;;;;;;5134644;27;20062;-71
2023/06/10 01:15:18;;;;;;;6.13;4.90;;;16.60;99.90;;;;;;5135286;27;20027;-69
2023/06/10 01:18:01;;;;;;;7.88;5.80;;;16.70;99.90;;;;;;5134595;27;20062;-70
2023/06/10 01:20:28;;;;;;;8.70;5.50;;;16.70;99.90;;;;;;5135101;27;20030;-70
2023/06/10 01:22:54;;;;;;;6.53;5.40;;;16.70;99.90;;;;;;5134995;27;20023;-70
2023/06/10 01:25:27;;;;;;;6.95;5.43;;;16.70;99.90;;;;;;5134947;27;20110;-70
2023/06/10 01:28:13;;;;;;;11.75;5.60;;;16.80;99.90;;;;;;5134482;27;20035;-69
2023/06/10 01:30:45;;;;;;;7.22;5.82;;;16.80;99.90;;;;;;5134469;27;20022;-70
2023/06/10 01:33:12;;;;;;;7.05;5.70;;;16.90;99.90;;;;;;5134894;27;20030;-70
2023/06/10 01:35:39;;;;;;;7.15;5.90;;;16.90;99.90;;;;;;5134583;27;20042;-70
2023/06/10 01:38:05;;;;;;;9.52;6.80;;;16.90;99.90;;;;;;5134834;27;20031;-70
2023/06/10 01:40:32;;;;;;;7.63;6.30;;;16.90;99.90;;;;;;5115989;27;20035;-74
2023/06/10 01:42:58;;;;;;;7.97;6.35;;;16.90;99.90;;;;;;5134974;27;20083;-69
2023/06/10 01:45:23;;;;;;;8.13;6.25;;;16.90;99.90;;;;;;5134654;27;20394;-69
2023/06/10 01:47:49;;;;;;;9.70;6.50;;;17.00;99.90;;;;;;5133817;27;20031;-70
2023/06/10 01:50:16;;;;;;;8.05;6.40;;;17.00;99.90;;;;;;5134598;27;20020;-69
2023/06/10 01:52:42;;;;;;;7.68;6.38;;;17.00;99.90;;;;;;5133856;27;20470;-70
2023/06/10 01:55:07;;;;;;;6.78;6.05;;;17.00;99.90;;;;;;5134434;27;20027;-70
2023/06/10 01:57:33;;;;;;;9.23;6.82;;;17.00;99.90;;;;;;5133634;27;20051;-74
2023/06/10 01:59:59;;;;;;;7.22;6.50;;;17.00;99.90;;;;;;5134409;27;20057;-70
2023/06/10 02:02:25;;;;;;;8.73;6.88;;;17.00;99.90;;;;;;5127779;27;20019;-70
2023/06/10 02:04:50;;;;;;;9.20;7.07;;;17.10;99.90;;;;;;5133678;27;20039;-70
2023/06/10 02:07:16;;;;;;;8.32;6.75;;;17.10;99.90;;;;;;5134079;27;20031;-70
2023/06/10 02:09:42;;;;;;;9.23;7.38;;;17.10;99.90;;;;;;5130061;27;20023;-70
2023/06/10 02:12:08;;;;;;;10.15;7.35;;;17.20;99.90;;;;;;5113759;28;20422;-68
2023/06/10 02:14:33;;;;;;;12.80;7.60;;;17.20;99.90;;;;;;5113266;28;20111;-73
2023/06/10 02:16:59;;;;;;;8.55;7.63;;;17.20;99.90;;;;;;5113002;28;20531;-70
2023/06/10 02:19:26;;;;;;;10.07;7.07;;;17.20;99.90;;;;;;5113567;28;20507;-69
2023/06/10 02:21:52;;;;;;;8.00;6.78;;;17.20;99.90;;;;;;5112838;28;20518;-70
2023/06/10 02:24:18;;;;;;;9.13;7.45;;;17.20;99.90;;;;;;5095179;28;20023;-70
2023/06/10 02:26:43;;;;;;;9.32;6.97;;;17.20;99.90;;;;;;5112494;28;20031;-70
2023/06/10 02:29:09;;;;;;;9.90;8.32;;;17.20;99.90;;;;;;5113007;28;20384;-70
2023/06/10 02:31:35;;;;;;;11.55;8.25;;;17.20;99.90;;;;;;5094863;28;20030;-74
2023/06/10 02:34:02;;;;;;;12.63;8.23;;;17.20;99.90;;;;;;5112571;28;20118;-70
2023/06/10 02:36:28;;;;;;;10.20;7.97;;;17.20;99.90;;;;;;5113166;28;20069;-70
2023/06/10 02:38:54;;;;;;;8.80;7.57;;;17.20;99.90;;;;;;5112686;28;20060;-70
2023/06/10 02:41:21;;;;;;;9.57;7.70;;;17.20;99.90;;;;;;5113301;28;20028;-70
2023/06/10 02:43:47;;;;;;;10.05;8.55;;;17.20;99.90;;;;;;5112609;28;20375;-70
2023/06/10 02:46:13;;;;;;;11.10;8.73;;;17.20;99.90;;;;;;5112406;28;20054;-70
2023/06/10 02:48:46;;;;;;;11.50;8.02;;;17.20;99.90;;;;;;5112553;28;20032;-71
2023/06/10 02:51:12;;;;;;;11.15;7.85;;;17.20;99.90;;;;;;5113080;28;20023;-70
2023/06/10 02:53:37;;;;;;;13.25;8.05;;;17.20;99.90;;;;;;5094389;28;20400;-74
2023/06/10 02:56:03;;;;;;;9.57;8.13;;;17.20;99.90;;;;;;5112905;28;20110;-70
2023/06/10 02:58:29;;;;;;;12.13;8.70;;;17.20;99.90;;;;;;5113297;28;20023;-70
2023/06/10 03:00:54;;;;;;;10.65;8.52;;;17.20;99.90;;;;;;5112394;28;20023;-69
2023/06/10 03:03:22;;;;;;;11.88;8.65;;;17.20;99.90;;;;;;5112926;28;20028;-70
2023/06/10 03:05:48;;;;;;;10.73;8.82;;;17.20;99.90;;;;;;5112266;28;20024;-70
2023/06/10 03:08:13;;;;;;;11.57;7.95;;;17.20;99.90;;;;;;5112774;28;20032;-69
2023/06/10 03:10:39;;;;;;;13.95;8.73;;;17.20;99.90;;;;;;5112217;28;20036;-74
2023/06/10 03:13:05;;;;;;;10.73;8.00;;;17.20;99.90;;;;;;5112796;28;20027;-70
2023/06/10 03:15:32;;;;;;;10.38;8.13;;;17.20;99.90;;;;;;5112837;28;20027;-70
2023/06/10 03:18:00;;;;;;;12.60;8.98;;;17.30;99.90;;;;;;5112037;28;20456;-70
2023/06/10 03:20:27;;;;;;;13.43;9.57;;;17.30;99.90;;;;;;5112792;28;20055;-70
2023/06/10 03:22:53;;;;;;;9.32;8.25;;;17.30;99.90;;;;;;5112177;28;20023;-70
2023/06/10 03:25:20;;;;;;;14.18;9.27;;;17.30;99.90;;;;;;5112842;28;20061;-70
2023/06/10 03:27:46;;;;;;;14.95;11.07;;;17.30;99.90;;;;;;5112273;28;20038;-70
2023/06/10 03:30:13;;;;;;;13.52;11.40;;;17.30;99.90;;;;;;5112516;28;20027;-70
2023/06/10 03:32:39;;;;;;;14.02;12.15;;;17.40;99.90;;;;;;5112638;28;20055;-69
2023/06/10 03:35:05;;;;;;;14.85;12.50;;;17.40;99.90;;;;;;5112017;28;20525;-68
2023/06/10 03:37:30;;;;;;;15.70;11.57;;;17.40;99.90;;;;;;5112429;28;20040;-70
2023/06/10 03:39:56;;;;;;;13.27;11.25;;;17.50;99.90;;;;;;5112021;28;20039;-70
2023/06/10 03:42:21;;;;;;;15.35;12.10;;;17.50;99.90;;;;;;5112279;28;20020;-70
2023/06/10 03:44:47;;;;;;;14.23;11.55;;;17.50;99.90;;;;;;5111715;28;20375;-70
2023/06/10 03:47:13;;;;;;;13.65;12.20;;;17.60;99.90;;;;;;5116198;28;20067;-70
2023/06/10 03:49:40;;;;;;;13.25;11.85;;;17.60;99.90;;;;;;5116384;28;20054;-69
2023/06/10 03:52:06;;;;;;;13.25;11.85;;;17.60;99.90;;;;;;5115975;28;20032;-69
2023/06/10 03:54:34;;;;;;;14.60;11.95;;;17.60;99.90;;;;;;5097954;28;20577;-70
2023/06/10 03:57:00;;;;;;;15.57;11.98;;;17.60;99.90;;;;;;5115648;28;20051;-70
2023/06/10 03:59:25;;;;;;;13.57;11.95;;;17.60;99.90;;;;;;5116101;28;20032;-70
2023/06/10 04:01:51;;;;;;;17.98;13.55;;;17.70;99.90;;;;;;5115580;28;20020;-70
2023/06/10 04:04:17;;;;;;;15.75;13.10;;;17.70;99.90;;;;;;5116145;28;20508;-70
2023/06/10 04:06:43;;;;;;;14.23;12.23;;;17.70;99.90;;;;;;5097518;28;20055;-74
2023/06/10 04:09:09;;;;;;;15.25;13.65;;;17.70;99.90;;;;;;5118690;27;20027;-70
2023/06/10 04:11:36;;;;;;;14.65;12.65;;;17.70;99.90;;;;;;5100707;28;20030;-69
2023/06/10 04:14:01;;;;;;;16.30;13.65;;;17.80;99.90;;;;;;5115349;28;20024;-69
2023/06/10 04:16:28;;;;;;;17.45;13.73;;;17.90;99.90;;;;;;5127888;27;20105;-69
2023/06/10 04:18:53;;;;;;;20.33;16.10;;;17.80;99.90;;;;;;5135987;27;20076;-69
2023/06/10 04:21:19;;;;;;;19.00;15.25;;;17.90;99.90;;;;;;5136405;27;20019;-69
2023/06/10 04:23:44;;;;;;;19.60;15.45;;;17.90;99.90;;;;;;5122035;27;20020;-74
2023/06/10 04:26:12;;;;;;;19.05;15.55;;;17.90;99.90;;;;;;5118781;27;20052;-70
2023/06/10 04:28:38;;;;;;;22.23;17.10;;;18.00;99.90;;;;;;5107678;27;20023;-68
2023/06/10 04:31:04;;;;;;;20.02;16.52;;;18.00;99.90;;;;;;5125283;27;20031;-68
2023/06/10 04:33:30;;;;;;;20.92;16.83;;;18.00;99.90;;;;;;5136049;27;20106;-69
2023/06/10 04:35:56;;;;;;;21.27;16.65;;;18.10;99.90;;;;;;5135742;27;20505;-68
2023/06/10 04:38:22;;;;;;;20.98;15.38;;;18.10;99.90;;;;;;5136253;27;20069;-68
2023/06/10 04:40:47;;;;;;;19.25;14.68;;;18.20;99.90;;;;;;5135232;27;20019;-72
2023/06/10 04:43:13;;;;;;;18.58;14.90;;;18.30;99.90;;;;;;5135553;27;20037;-68
2023/06/10 04:45:39;;;;;;;19.65;15.85;;;18.30;99.90;;;;;;5135821;27;20129;-68
2023/06/10 04:48:05;;;;;;;18.88;15.30;;;18.30;99.90;;;;;;5135540;27;20027;-69
2023/06/10 04:50:32;;;;;;;20.02;15.80;;;18.20;99.90;;;;;;5135561;27;20391;-70
2023/06/10 04:52:58;;;;;;;18.50;15.35;;;18.20;99.90;;;;;;5135125;27;20027;-68
2023/06/10 04:55:25;;;;;;;19.83;15.38;;;18.20;99.90;;;;;;5135215;27;20026;-68
2023/06/10 04:57:51;;;;;;;17.38;14.90;;;18.30;99.90;;;;;;5135088;27;20443;-69
2023/06/10 05:00:17;;;;;;;20.88;15.55;;;18.30;99.90;;;;;;5135497;27;20112;-69
2023/06/10 05:02:44;;;;;;;17.58;15.27;;;18.30;99.90;;;;;;5135435;27;20031;-68
2023/06/10 05:05:10;;;;;;;22.08;15.90;;;18.30;99.90;;;;;;5134868;27;20039;-69
2023/06/10 05:07:37;;;;;;;17.45;15.43;;;18.40;99.90;;;;;;5135251;27;20023;-68
2023/06/10 05:10:03;;;;;;;19.63;15.38;;;18.40;99.90;;;;;;5134863;27;20030;-69
2023/06/10 05:12:28;;;;;;;17.42;15.52;;;18.40;99.90;;;;;;5135228;27;20031;-70
2023/06/10 05:14:54;;;;;;;22.33;16.27;;;18.40;99.90;;;;;;5134697;27;20023;-69
2023/06/10 05:17:20;;;;;;;18.42;15.35;;;18.40;99.90;;;;;;5135131;27;20031;-69
2023/06/10 05:19:47;;;;;;;18.30;15.68;;;18.40;99.90;;;;;;5135456;27;20034;-69
2023/06/10 05:22:13;;;;;;;21.25;15.98;;;18.40;99.90;;;;;;5134516;27;20031;-69
2023/06/10 05:24:39;;;;;;;19.90;15.68;;;18.40;99.90;;;;;;5135027;27;20033;-69
2023/06/10 05:27:06;;;;;;;19.25;15.85;;;18.40;99.90;;;;;;5134371;27;20027;-69
2023/06/10 05:29:32;;;;;;;19.55;16.23;;;18.40;99.90;;;;;;5134971;27;20027;-69
2023/06/10 05:32:00;;;;;;;22.35;16.30;;;18.40;99.90;;;;;;5134312;27;20415;-69
2023/06/10 05:34:25;;;;;;;19.85;16.20;;;18.50;99.90;;;;;;5134530;27;20463;-69
2023/06/10 05:36:51;;;;;;;23.27;15.70;;;18.50;99.90;;;;;;5134869;27;20027;-73
2023/06/10 05:39:17;;;;;;;21.98;16.63;;;18.40;99.90;;;;;;5134577;27;20027;-69
2023/06/10 05:41:42;;;;;;;20.50;16.42;;;18.50;99.90;;;;;;5134742;27;20337;-71
2023/06/10 05:44:08;;;;;;;22.33;16.92;;;18.50;99.90;;;;;;5134298;27;20353;-70
2023/06/10 05:46:34;;;;;;;20.58;16.50;;;18.40;99.90;;;;;;5134730;27;20039;-69
2023/06/10 05:48:59;;;;;;;21.27;17.77;;;18.50;99.90;;;;;;5134722;27;20489;-70
2023/06/10 05:51:25;;;;;;;24.52;16.77;;;18.50;99.90;;;;;;5134694;27;20031;-70
2023/06/10 05:53:51;;;;;;;22.05;16.92;;;18.50;99.90;;;;;;5134757;27;20137;-70
2023/06/10 05:56:17;;;;;;;20.58;16.83;;;18.50;99.90;;;;;;5104299;28;20111;-70
2023/06/10 05:58:42;;;;;;;20.52;17.42;;;18.60;99.90;;;;;;5124862;27;20020;-70
2023/06/10 06:01:08;;;;;;;20.10;17.30;;;18.70;99.90;;;;;;5124321;27;20027;-70
2023/06/10 06:03:33;;;;;;;24.08;17.45;;;18.80;99.90;;;;;;5124978;27;20053;-68
2023/06/10 06:05:59;;;;;;;24.98;19.50;;;18.90;99.90;;;;;;5124725;27;20031;-69
2023/06/10 06:08:25;;;;;;;26.88;19.05;;;18.80;99.90;;;;;;5121579;27;20033;-69
2023/06/10 06:10:50;;;;;;;24.65;19.10;;;18.80;99.90;;;;;;5124111;27;20025;-68
2023/06/10 06:13:16;;;;;;;26.33;20.45;;;18.80;99.90;;;;;;5125193;27;20015;-69
2023/06/10 06:15:41;;;;;;;25.50;20.10;;;18.80;99.90;;;;;;5120353;27;20106;-69
2023/06/10 06:18:07;;;;;;;24.70;19.38;;;18.80;99.90;;;;;;5122534;27;20031;-68
2023/06/10 06:20:33;;;;;;;30.40;20.42;;;18.70;99.90;;;;;;5118296;27;20062;-68
2023/06/10 06:22:58;;;;;;;25.48;20.05;;;18.70;99.90;;;;;;5112984;28;20032;-69
2023/06/10 06:25:24;;;;;;;30.08;21.13;;;18.70;99.90;;;;;;5113446;28;20024;-68
2023/06/10 06:27:49;;;;;;;26.73;20.13;;;18.60;99.90;;;;;;5113275;28;20036;-68
2023/06/10 06:30:15;;;;;;;30.27;21.63;;;18.70;99.90;;;;;;5094450;28;20494;-69
2023/06/10 06:32:41;;;;;;;29.92;20.77;;;18.60;99.90;;;;;;5114622;27;20031;-68
2023/06/10 06:35:07;;;;;;;30.00;20.45;;;18.70;99.90;;;;;;5124200;27;20052;-69
2023/06/10 06:37:33;;;;;;;30.65;21.38;;;18.70;99.90;;;;;;5123528;27;20035;-69
2023/06/10 06:39:59;;;;;;;28.70;21.88;;;18.70;99.90;;;;;;5112410;28;20027;-70
2023/06/10 06:42:25;;;;;;;33.08;21.80;;;18.60;99.90;;;;;;5128193;27;20024;-69
2023/06/10 06:44:50;;;;;;;30.58;21.77;;;18.50;99.90;;;;;;5133606;27;20144;-71
2023/06/10 06:47:19;;;;;;;29.95;21.00;;;18.50;99.90;;;;;;5133289;27;20031;-70
2023/06/10 06:49:46;;;;;;;29.27;21.05;;;18.60;99.90;;;;;;5128639;27;20456;-69
2023/06/10 06:52:11;;;;;;;32.25;22.88;;;18.60;99.90;;;;;;5112832;28;20106;-70
2023/06/10 06:54:37;;;;;;;29.05;21.55;;;18.50;99.90;;;;;;5113054;28;20051;-70
2023/06/10 06:57:03;;;;;;;30.50;21.95;;;18.60;99.90;;;;;;5113019;28;20035;-70
2023/06/10 06:59:29;;;;;;;28.75;21.30;;;18.60;99.90;;;;;;5118589;28;20523;-70
2023/06/10 07:01:54;;;;;;;33.67;23.13;;;18.60;99.90;;;;;;5123673;28;20093;-70
2023/06/10 07:04:21;;;;;;;30.88;22.08;;;18.60;99.90;;;;;;5122674;28;20089;-70
2023/06/10 07:06:48;;;;;;;26.15;20.92;;;18.50;99.90;;;;;;5122506;28;20456;-70
2023/06/10 07:09:13;;;;;;;29.00;20.58;;;18.50;99.90;;;;;;5121340;28;20015;-70
2023/06/10 07:11:39;;;;;;;31.80;20.40;;;18.60;99.90;;;;;;5122706;28;20029;-70
2023/06/10 07:14:05;;;;;;;27.77;20.23;;;18.60;99.90;;;;;;5122720;28;20107;-70
2023/06/10 07:16:30;;;;;;;28.05;20.60;;;18.60;99.90;;;;;;5121482;28;20030;-69
2023/06/10 07:18:56;;;;;;;25.90;21.35;;;18.60;99.90;;;;;;5124715;27;20019;-70
2023/06/10 07:21:23;;;;;;;28.85;21.52;;;18.70;99.90;;;;;;5131161;27;20398;-70
2023/06/10 07:23:49;;;;;;;27.20;21.13;;;18.70;99.90;;;;;;5126842;27;20098;-70
2023/06/10 07:26:14;;;;;;;27.73;20.65;;;18.70;99.90;;;;;;5126497;27;20495;-70
2023/06/10 07:28:41;;;;;;;28.88;21.50;;;18.70;99.90;;;;;;5125708;27;20030;-70
2023/06/10 07:31:08;;;;;;;28.58;22.05;;;18.80;99.90;;;;;;5126501;27;20413;-70
2023/06/10 07:33:34;;;;;;;31.52;21.85;;;18.80;99.90;;;;;;5126876;27;20459;-69
2023/06/10 07:36:00;;;;;;;30.08;22.05;;;18.70;99.90;;;;;;5127289;27;20034;-70
2023/06/10 07:38:26;;;;;;;30.05;21.48;;;18.70;99.90;;;;;;5124882;27;20101;-70
2023/06/10 07:40:52;;;;;;;26.92;21.27;;;18.70;99.90;;;;;;5126198;27;20023;-69
2023/06/10 07:43:17;;;;;;;26.17;19.95;;;18.80;99.90;;;;;;5127941;27;20012;-69
2023/06/10 07:45:44;;;;;;;27.25;21.33;;;18.80;99.90;;;;;;5125010;27;20415;-70
2023/06/10 07:48:09;;;;;;;24.10;18.95;;;18.80;99.90;;;;;;5136281;27;20038;-70
2023/06/10 07:50:35;;;;;;;23.77;19.33;;;18.90;99.90;;;;;;5136932;27;20019;-70
2023/06/10 07:53:02;;;;;;;25.60;20.38;;;18.90;99.90;;;;;;5136485;27;20403;-70
2023/06/10 07:55:27;;;;;;;24.88;19.83;;;18.90;99.90;;;;;;5137123;27;20030;-70
2023/06/10 07:57:54;;;;;;;22.80;18.05;;;18.90;99.90;;;;;;5136545;27;20023;-69
2023/06/10 08:00:20;;;;;;;22.83;18.90;;;18.90;99.90;;;;;;5136137;27;20026;-70
2023/06/10 08:02:46;;;;;;;23.55;18.75;;;18.90;99.90;;;;;;5136484;27;20023;-69
2023/06/10 08:05:12;;;;;;;24.85;19.13;;;18.80;99.90;;;;;;5136246;27;20038;-70
2023/06/10 08:07:39;;;;;;;24.67;19.63;;;18.90;99.90;;;;;;5136664;27;20035;-70
2023/06/10 08:10:06;;;;;;;25.48;19.27;;;18.90;99.90;;;;;;5136309;27;20019;-70
2023/06/10 08:12:32;;;;;;;25.55;18.98;;;19.00;99.90;;;;;;5125608;27;20046;-70
2023/06/10 08:14:58;;;;;;;26.83;21.02;;;19.00;99.90;;;;;;5100564;28;20475;-70
2023/06/10 08:17:24;;;;;;;22.92;19.38;;;18.90;99.90;;;;;;5116017;28;20036;-70
2023/06/10 08:19:49;;;;;;;25.30;19.45;;;19.00;99.90;;;;;;5118537;27;20471;-69
2023/06/10 08:22:15;;;;;;;23.38;18.50;;;19.00;99.90;;;;;;5115889;28;20456;-70
2023/06/10 08:24:41;;;;;;;25.20;19.30;;;19.00;99.90;;;;;;5115633;28;20019;-70
2023/06/10 08:27:06;;;;;;;19.25;16.35;;;19.00;99.90;;;;;;5115291;28;20032;-70
2023/06/10 08:29:32;;;;;;;22.63;17.77;;;19.00;99.90;;;;;;5115907;28;20444;-70
2023/06/10 08:31:58;;;;;;;24.05;18.35;;;19.10;99.90;;;;;;5096192;28;20034;-72
2023/06/10 08:34:24;;;;;;;23.33;18.23;;;19.10;99.90;;;;;;5115607;28;20034;-70
2023/06/10 08:36:55;;;;;;;21.00;17.50;;;19.10;99.90;;;;;;5115609;28;20035;-70
2023/06/10 08:39:21;;;;;;;22.75;18.63;;;19.00;99.90;;;;;;5115272;28;20035;-70
2023/06/10 08:42:09;;;;;;;24.58;18.77;;;19.10;99.90;;;;;;5115579;28;20024;-69
2023/06/10 08:44:38;;;;;;;24.50;18.80;;;19.10;99.90;;;;;;5115650;28;20486;-70
2023/06/10 08:47:10;;;;;;;24.98;19.35;;;19.10;99.90;;;;;;5115090;28;20051;-69
2023/06/10 08:49:41;;;;;;;24.17;17.92;;;19.10;99.90;;;;;;5117464;27;20058;-69
2023/06/10 08:52:07;;;;;;;23.80;19.17;;;19.20;99.90;;;;;;5121442;27;20459;-69
2023/06/10 08:54:37;;;;;;;22.48;19.23;;;19.20;99.90;;;;;;5132317;27;20070;-70
2023/06/10 08:57:06;;;;;;;23.23;18.33;;;19.30;99.90;;;;;;5119888;27;20023;-70
2023/06/10 08:59:31;;;;;;;21.58;17.83;;;19.30;99.90;;;;;;5126127;27;20024;-70
2023/06/10 09:01:58;;;;;;;22.27;18.15;;;19.40;99.90;;;;;;5127557;27;20061;-70
2023/06/10 09:04:25;;;;;;;22.10;18.25;;;19.30;99.90;;;;;;5118192;27;20530;-70
2023/06/10 09:06:52;;;;;;;25.85;18.70;;;19.30;99.90;;;;;;5117899;27;20035;-70
2023/06/10 09:09:20;;;;;;;21.63;18.35;;;19.30;99.90;;;;;;5129341;27;20034;-73
2023/06/10 09:11:45;;;;;;;26.88;18.08;;;19.40;99.90;;;;;;5123975;27;20057;-67
2023/06/10 09:14:14;;;;;;;24.20;18.65;;;19.40;99.90;;;;;;5123691;27;20019;-68
2023/06/10 09:16:41;;;;;;;24.75;19.45;;;19.40;99.90;;;;;;5115983;28;20032;-68
2023/06/10 09:19:10;;;;;;;21.60;17.27;;;19.40;99.90;;;;;;5101458;27;20460;-66
2023/06/10 09:21:35;;;;;;;22.52;17.83;;;19.40;99.90;;;;;;5125005;27;20024;-69
2023/06/10 09:24:01;;;;;;;20.83;17.75;;;19.40;99.90;;;;;;5128105;27;20102;-66
2023/06/10 09:26:30;;;;;;;21.48;17.42;;;19.50;99.90;;;;;;5120383;27;20026;-67
2023/06/10 09:29:06;;;;;;;20.13;16.73;;;19.50;99.90;;;;;;5114114;28;20164;-66
2023/06/10 09:31:35;;;;;;;19.45;16.75;;;19.60;99.90;;;;;;5114271;28;20108;-68
2023/06/10 09:34:14;;;;;;;23.05;17.42;;;19.60;99.90;;;;;;5122107;27;20029;-67
2023/06/10 09:36:40;;;;;;;20.58;17.25;;;19.80;99.90;;;;;;5134855;27;20079;-67
2023/06/10 09:39:18;;;;;;;21.88;16.20;;;19.80;99.90;;;;;;5134387;27;20134;-68
2023/06/10 09:41:45;;;;;;;24.75;15.98;;;19.90;99.90;;;;;;5134661;27;20015;-68
2023/06/10 09:44:16;;;;;;;17.23;14.82;;;20.10;99.90;;;;;;5125290;27;20084;-66
2023/06/10 09:46:44;;;;;;;20.42;15.25;;;20.20;99.90;;;;;;5113603;28;20047;-67
2023/06/10 09:49:10;;;;;;;18.25;15.52;;;20.50;99.90;;;;;;5113536;28;20035;-68
2023/06/10 09:51:36;;;;;;;17.83;15.23;;;20.60;99.90;;;;;;5113977;28;20042;-68
2023/06/10 09:54:03;;;;;;;18.63;14.35;;;20.70;99.90;;;;;;5114023;28;20027;-66
2023/06/10 09:56:36;;;;;;;17.63;14.88;;;20.70;99.90;;;;;;5113825;28;20020;-67
2023/06/10 09:59:02;;;;;;;19.58;15.02;;;20.70;99.90;;;;;;5113736;28;20065;-67
2023/06/10 10:01:30;;;;;;;16.58;14.18;;;20.80;99.90;;;;;;5125843;27;20371;-68
2023/06/10 10:03:55;;;;;;;17.35;14.48;;;20.80;99.90;;;;;;5120807;27;20334;-69
2023/06/10 10:06:21;;;;;;;15.90;13.55;;;20.80;99.90;;;;;;5130048;27;20106;-69
2023/06/10 10:08:49;;;;;;;20.40;13.85;;;20.80;99.90;;;;;;5119080;27;20101;-68
2023/06/10 10:11:17;;;;;;;17.63;13.93;;;20.80;99.90;;;;;;5121459;27;20065;-70
2023/06/10 10:13:48;;;;;;;17.23;14.10;;;20.80;99.90;;;;;;5127915;27;20019;-70
2023/06/10 10:16:43;;;;;;;15.13;13.52;;;20.90;99.90;;;;;;5112746;28;20535;-68
2023/06/10 10:19:19;;;;;;;15.73;13.15;;;21.00;99.90;;;;;;5114514;27;20493;-70
2023/06/10 10:21:53;;;;;;;15.15;12.80;;;21.10;99.90;;;;;;5131428;27;20099;-69
2023/06/10 10:24:21;;;;;;;13.48;12.05;;;21.00;99.90;;;;;;5116368;27;20057;-70
2023/06/10 10:26:50;;;;;;;19.38;13.13;;;21.10;99.90;;;;;;5094704;28;20100;-70
2023/06/10 10:29:30;;;;;;;16.90;12.90;;;21.30;99.90;;;;;;5112290;28;20031;-70
2023/06/10 10:32:00;;;;;;;14.93;12.77;;;21.30;99.90;;;;;;5116961;27;20027;-70
2023/06/10 10:34:53;;;;;;;14.85;11.93;;;21.40;99.90;;;;;;5124900;27;20090;-70
2023/06/10 10:37:21;;;;;;;17.40;11.52;;;21.60;99.90;;;;;;5105736;28;20043;-70
2023/06/10 10:39:47;;;;;;;15.98;12.18;;;21.70;99.90;;;;;;5112655;28;20032;-70
2023/06/10 10:42:14;;;;;;;13.93;11.13;;;21.90;99.90;;;;;;5112486;28;20496;-70
2023/06/10 10:44:40;;;;;;;13.80;11.52;;;22.00;99.90;;;;;;5131366;27;20068;-70
2023/06/10 10:47:09;;;;;;;12.18;10.88;;;22.10;99.90;;;;;;5132692;27;20054;-73
2023/06/10 10:49:36;;;;;;;14.48;10.80;;;22.10;99.90;;;;;;5114539;27;20157;-72
2023/06/10 10:52:05;;;;;;;13.20;11.02;;;22.30;99.90;;;;;;5128653;27;20035;-72
2023/06/10 10:54:43;;;;;;;13.30;10.90;;;22.40;99.90;;;;;;5132189;27;20023;-72
2023/06/10 10:57:20;;;;;;;15.43;11.32;;;22.50;99.90;;;;;;5114793;27;20027;-73
2023/06/10 10:59:49;;;;;;;12.15;10.68;;;22.60;99.90;;;;;;5112499;28;20020;-69
2023/06/10 11:02:38;;;;;;;13.30;10.30;;;22.60;99.90;;;;;;5112095;28;20020;-69
2023/06/10 11:05:05;;;;;;;11.68;9.93;;;22.60;99.90;;;;;;5097848;28;20040;-65
2023/06/10 11:07:31;;;;;;;13.90;11.00;;;22.80;99.90;;;;;;5121567;28;20043;-68
2023/06/10 11:10:03;;;;;;;14.43;9.95;;;22.80;99.90;;;;;;5132834;28;20493;-68
2023/06/10 11:12:40;;;;;;;13.63;10.50;;;22.80;99.90;;;;;;5132459;28;20027;-68
2023/06/10 11:15:06;;;;;;;12.98;10.20;;;22.80;99.90;;;;;;5124732;28;20788;-69
2023/06/10 11:17:32;;;;;;;12.65;10.57;;;22.80;99.90;;;;;;5111673;28;20372;-68
2023/06/10 11:19:59;;;;;;;12.48;10.52;;;22.80;99.90;;;;;;5112259;28;20020;-68
2023/06/10 11:22:24;;;;;;;12.25;10.20;;;22.80;99.90;;;;;;5113164;28;20439;-68
2023/06/10 11:24:51;;;;;;;11.95;10.57;;;22.70;99.90;;;;;;5112544;28;20070;-66
2023/06/10 11:27:22;;;;;;;11.50;10.00;;;22.70;99.90;;;;;;5112124;28;20031;-69
2023/06/10 11:29:57;;;;;;;11.55;9.98;;;22.70;99.90;;;;;;5112729;28;20028;-68
2023/06/10 11:32:30;;;;;;;12.60;10.13;;;22.70;99.90;;;;;;5116400;28;20032;-69
2023/06/10 11:34:56;;;;;;;12.15;9.55;;;22.70;99.90;;;;;;5132935;28;20110;-69
2023/06/10 11:37:22;;;;;;;10.88;9.52;;;22.80;99.90;;;;;;5132483;28;20057;-69
2023/06/10 11:39:51;;;;;;;12.05;10.23;;;22.80;99.90;;;;;;5132879;28;20034;-68
2023/06/10 11:42:17;;;;;;;11.77;10.18;;;22.90;99.90;;;;;;5132730;28;20540;-69
2023/06/10 11:44:52;;;;;;;10.93;9.65;;;22.90;99.90;;;;;;5132555;28;20523;-67
2023/06/10 11:47:18;;;;;;;10.32;8.73;;;22.90;99.90;;;;;;5132589;28;20035;-67
2023/06/10 11:49:45;;;;;;;12.05;9.00;;;23.00;99.90;;;;;;5132909;28;20083;-67
2023/06/10 11:52:11;;;;;;;11.00;8.82;;;23.10;99.90;;;;;;5132436;28;20038;-68
2023/06/10 11:54:37;;;;;;;14.25;9.77;;;23.10;99.90;;;;;;5133075;28;20023;-66
2023/06/10 11:57:04;;;;;;;9.63;8.60;;;23.20;99.90;;;;;;5132660;28;20031;-67
2023/06/10 11:59:30;;;;;;;10.48;8.50;;;23.40;99.90;;;;;;5132385;28;20227;-67
2023/06/10 12:01:56;;;;;;;11.30;8.43;;;23.40;99.90;;;;;;5133004;28;20106;-67
2023/06/10 12:04:22;;;;;;;10.77;9.57;;;23.50;99.90;;;;;;5132460;28;20019;-67
2023/06/10 12:06:50;;;;;;;10.73;8.88;;;23.40;99.50;;;;;;5134593;27;20578;-67
2023/06/10 12:09:27;;;;;;;10.45;9.35;;;23.50;99.90;;;;;;5136243;27;20023;-68
2023/06/10 12:12:04;;;;;;;11.95;9.13;;;23.50;99.90;;;;;;5136475;27;20367;-67
2023/06/10 12:14:58;;;;;;;9.07;8.18;;;23.50;99.90;;;;;;5117703;27;20055;-67
2023/06/10 12:17:24;;;;;;;11.35;9.15;;;23.40;98.90;;;;;;5115465;28;20046;-67
2023/06/10 12:19:52;;;;;;;11.38;8.60;;;23.40;99.90;;;;;;5115836;28;20024;-67
2023/06/10 12:22:19;;;;;;;10.43;9.30;;;23.50;99.90;;;;;;5115096;28;20501;-67
2023/06/10 12:25:02;;;;;;;10.23;9.10;;;23.50;99.90;;;;;;5115776;28;20035;-67
2023/06/10 12:27:30;;;;;;;10.00;8.20;;;23.40;96.50;;;;;;5114978;28;20531;-68
2023/06/10 12:30:00;;;;;;;10.20;8.82;;;23.40;96.70;;;;;;5115701;28;20028;-68
2023/06/10 12:32:36;;;;;;;10.23;8.48;;;23.40;98.30;;;;;;5132306;27;20038;-68
2023/06/10 12:35:06;;;;;;;10.93;7.97;;;23.40;99.90;;;;;;5132998;27;20026;-68